Time;durP1;ratioP1;P1;durP2;ratioP2;P2;SDS_P1;SDS_P2;PMS_P1;PMS_P2;Temp;Humidity;BMP_temperature;BMP_pressure;BME280_temperature;BME280_humidity;BME280_pressure;Samples;Min_cycle;Max_cycle;Signal;HPM_P1;HPM_P2
2022/09/21 00:00:33;;;;;;;3.35;0.73;;;15.40;92.70;;;;;;4977860;28;20086;-84
2022/09/21 00:02:59;;;;;;;2.35;0.90;;;15.30;92.80;;;;;;4982618;28;20061;-84
2022/09/21 00:05:25;;;;;;;3.65;1.08;;;15.30;92.90;;;;;;4983023;28;20373;-84
2022/09/21 00:07:51;;;;;;;2.97;0.90;;;15.30;92.90;;;;;;4980669;28;20182;-85
2022/09/21 00:10:18;;;;;;;2.38;0.90;;;15.20;93.30;;;;;;4982518;28;20315;-85
2022/09/21 00:12:46;;;;;;;4.75;0.95;;;15.20;93.20;;;;;;4979745;28;20031;-85
2022/09/21 00:15:11;;;;;;;4.63;0.80;;;15.20;93.20;;;;;;4980834;28;20101;-85
2022/09/21 00:17:38;;;;;;;4.95;1.00;;;15.20;93.20;;;;;;4982029;28;20026;-84
2022/09/21 00:20:05;;;;;;;4.03;0.90;;;15.20;93.40;;;;;;4982494;28;20026;-85
2022/09/21 00:22:34;;;;;;;3.65;1.15;;;15.20;93.50;;;;;;4982206;28;20034;-84
2022/09/21 00:25:03;;;;;;;4.10;0.80;;;15.10;93.30;;;;;;4980714;28;20046;-85
2022/09/21 00:27:31;;;;;;;3.35;0.80;;;15.10;93.60;;;;;;4979286;28;20268;-84
2022/09/21 00:29:59;;;;;;;3.88;0.80;;;15.10;93.80;;;;;;4980597;28;20030;-85
2022/09/21 00:32:24;;;;;;;5.00;1.00;;;15.10;93.90;;;;;;4982045;28;20094;-85
2022/09/21 00:34:51;;;;;;;9.00;1.00;;;15.00;94.00;;;;;;4981389;28;20026;-84
2022/09/21 00:37:17;;;;;;;4.07;0.85;;;15.00;94.10;;;;;;4982292;28;20022;-84
2022/09/21 00:39:43;;;;;;;2.92;0.93;;;15.00;94.20;;;;;;4982298;28;20019;-84
2022/09/21 00:42:20;;;;;;;2.70;0.93;;;14.90;94.20;;;;;;4981889;28;20101;-83
2022/09/21 00:44:46;;;;;;;4.32;0.85;;;14.90;94.30;;;;;;4981777;28;20089;-84
2022/09/21 00:47:26;;;;;;;7.15;0.88;;;14.80;94.30;;;;;;4981857;28;20073;-85
2022/09/21 00:49:55;;;;;;;4.68;1.17;;;14.80;94.50;;;;;;4981706;28;20034;-85
2022/09/21 00:52:24;;;;;;;6.82;0.90;;;14.80;94.50;;;;;;4982251;28;20414;-84
2022/09/21 00:55:01;;;;;;;3.58;0.98;;;14.80;94.80;;;;;;4962036;28;20030;-84
2022/09/21 00:57:30;;;;;;;4.50;1.02;;;14.70;94.70;;;;;;4964316;29;20091;-84
2022/09/21 00:59:59;;;;;;;4.07;0.98;;;14.70;94.90;;;;;;4976212;28;20042;-85
2022/09/21 01:02:25;;;;;;;2.75;0.82;;;14.70;94.90;;;;;;4985878;28;20046;-83
2022/09/21 01:04:53;;;;;;;4.72;1.33;;;14.70;95.00;;;;;;4985088;28;20318;-84
2022/09/21 01:07:23;;;;;;;4.00;1.10;;;14.70;94.90;;;;;;4982695;28;20022;-84
2022/09/21 01:09:53;;;;;;;6.78;1.77;;;14.70;95.00;;;;;;4985955;28;20066;-84
2022/09/21 01:12:28;;;;;;;2.50;0.80;;;14.70;95.10;;;;;;4985070;28;20023;-85
2022/09/21 01:15:26;;;;;;;3.85;1.23;;;14.60;95.10;;;;;;4984972;28;20050;-85
2022/09/21 01:18:15;;;;;;;2.28;1.10;;;14.60;95.20;;;;;;4985864;28;20308;-85
2022/09/21 01:20:40;;;;;;;4.30;1.50;;;14.60;95.30;;;;;;4985589;28;20377;-84
2022/09/21 01:23:39;;;;;;;5.72;1.20;;;14.50;95.30;;;;;;4985728;28;20018;-84
2022/09/21 01:26:14;;;;;;;5.18;1.13;;;14.40;95.60;;;;;;4985033;28;20034;-84
2022/09/21 01:29:17;;;;;;;3.97;1.20;;;14.40;95.60;;;;;;4985081;28;20066;-85
2022/09/21 01:31:56;;;;;;;3.90;1.30;;;14.40;95.80;;;;;;4972207;28;20026;-84
2022/09/21 01:34:37;;;;;;;6.85;1.60;;;14.40;95.80;;;;;;4985235;28;20026;-85
2022/09/21 01:37:10;;;;;;;3.95;1.10;;;14.40;95.90;;;;;;4985307;28;20128;-84
2022/09/21 01:39:39;;;;;;;4.63;0.85;;;14.40;95.90;;;;;;4985281;28;20019;-84
2022/09/21 01:42:06;;;;;;;3.25;1.20;;;14.30;96.10;;;;;;4985172;28;20263;-85
2022/09/21 01:44:34;;;;;;;3.33;1.17;;;14.30;96.20;;;;;;4984881;28;20037;-84
2022/09/21 01:47:02;;;;;;;3.58;1.30;;;14.30;96.30;;;;;;4985197;28;20307;-85
2022/09/21 01:49:33;;;;;;;3.08;1.20;;;14.30;96.20;;;;;;4985064;28;20033;-85
2022/09/21 01:52:10;;;;;;;3.05;1.20;;;14.30;96.30;;;;;;4985173;28;20151;-84
2022/09/21 01:54:41;;;;;;;4.90;1.10;;;14.20;96.40;;;;;;4984868;28;20430;-85
2022/09/21 01:57:54;;;;;;;7.18;1.17;;;14.20;96.50;;;;;;4984859;28;20054;-84
2022/09/21 02:00:21;;;;;;;3.53;1.15;;;14.30;96.50;;;;;;4973630;28;20335;-84
2022/09/21 02:02:50;;;;;;;4.95;1.08;;;14.20;96.40;;;;;;4983004;28;20030;-85
2022/09/21 02:05:19;;;;;;;4.13;1.10;;;14.20;96.50;;;;;;4982180;28;20075;-84
2022/09/21 02:07:46;;;;;;;5.43;1.20;;;14.20;96.50;;;;;;4981800;28;20248;-83
2022/09/21 02:10:27;;;;;;;7.85;1.10;;;14.10;96.70;;;;;;4962994;28;20224;-84
2022/09/21 02:12:59;;;;;;;2.92;0.90;;;14.10;96.80;;;;;;4971407;28;20188;-84
2022/09/21 02:15:47;;;;;;;3.53;1.20;;;14.10;96.80;;;;;;4983964;28;20030;-83
2022/09/21 02:18:39;;;;;;;3.38;1.10;;;14.00;96.80;;;;;;4970603;28;20030;-84
2022/09/21 02:21:14;;;;;;;4.43;1.15;;;14.00;97.00;;;;;;4984132;28;20027;-85
2022/09/21 02:24:00;;;;;;;1.40;0.73;;;14.00;97.00;;;;;;4984370;28;20398;-85
2022/09/21 02:26:33;;;;;;;4.53;1.40;;;14.00;97.00;;;;;;4984362;28;20102;-85
2022/09/21 02:29:38;;;;;;;6.60;1.33;;;14.00;97.00;;;;;;4984234;28;20034;-84
2022/09/21 02:32:13;;;;;;;2.13;1.00;;;14.00;97.20;;;;;;4967293;28;20034;-84
2022/09/21 02:34:48;;;;;;;6.90;1.33;;;13.90;97.30;;;;;;4972938;28;20015;-84
2022/09/21 02:37:43;;;;;;;7.65;1.25;;;13.90;97.20;;;;;;4955949;28;20118;-86
2022/09/21 02:40:21;;;;;;;4.43;1.20;;;13.90;97.30;;;;;;4959918;28;20027;-84
2022/09/21 02:42:52;;;;;;;5.22;1.20;;;13.90;97.40;;;;;;4972723;28;20039;-84
2022/09/21 02:45:22;;;;;;;4.82;1.40;;;13.90;97.40;;;;;;4972776;28;20549;-85
2022/09/21 02:48:14;;;;;;;3.90;1.00;;;13.90;97.50;;;;;;4973216;28;20078;-85
2022/09/21 02:50:52;;;;;;;6.40;1.30;;;13.80;97.60;;;;;;4962405;28;20058;-84
2022/09/21 02:53:24;;;;;;;2.50;1.08;;;13.80;97.60;;;;;;4972856;28;20038;-85
2022/09/21 02:55:51;;;;;;;8.30;1.40;;;13.80;97.80;;;;;;4961414;28;20041;-86
2022/09/21 02:58:20;;;;;;;4.13;1.30;;;13.70;97.70;;;;;;4952126;28;20090;-85
2022/09/21 03:00:46;;;;;;;6.03;1.00;;;13.70;97.80;;;;;;4972463;28;20037;-84
2022/09/21 03:03:21;;;;;;;4.32;1.40;;;13.70;97.90;;;;;;4972818;28;20027;-86
2022/09/21 03:05:49;;;;;;;3.50;1.23;;;13.70;98.00;;;;;;4972462;28;20030;-84
2022/09/21 03:08:16;;;;;;;8.43;1.60;;;13.60;97.90;;;;;;4952625;28;20028;-84
2022/09/21 03:10:42;;;;;;;5.45;1.40;;;13.50;98.10;;;;;;4959270;28;20032;-85
2022/09/21 03:13:10;;;;;;;3.60;1.20;;;13.50;98.20;;;;;;4971087;28;20027;-84
2022/09/21 03:15:37;;;;;;;6.95;1.25;;;13.50;98.30;;;;;;4972312;28;20122;-86
2022/09/21 03:18:05;;;;;;;7.55;1.55;;;13.50;98.50;;;;;;4971491;28;20476;-85
2022/09/21 03:20:34;;;;;;;3.78;1.15;;;13.40;98.60;;;;;;4972136;28;20419;-85
2022/09/21 03:23:00;;;;;;;5.13;1.40;;;13.40;98.60;;;;;;4973990;28;20034;-85
2022/09/21 03:25:27;;;;;;;4.80;1.30;;;13.30;98.70;;;;;;4983450;28;20046;-84
2022/09/21 03:27:53;;;;;;;3.28;1.10;;;13.30;98.90;;;;;;4972117;28;20031;-84
2022/09/21 03:30:20;;;;;;;8.43;1.27;;;13.30;98.90;;;;;;4972035;28;20022;-85
2022/09/21 03:32:52;;;;;;;4.25;1.27;;;13.40;99.00;;;;;;4972120;28;20037;-84
2022/09/21 03:35:20;;;;;;;6.40;1.25;;;13.30;99.10;;;;;;4972025;28;20141;-85
2022/09/21 03:37:46;;;;;;;4.07;1.20;;;13.30;99.20;;;;;;4971880;28;20113;-85
2022/09/21 03:40:13;;;;;;;2.67;1.02;;;13.30;99.10;;;;;;4971694;28;20114;-84
2022/09/21 03:42:39;;;;;;;6.55;2.22;;;13.20;99.20;;;;;;4971598;28;20399;-86
2022/09/21 03:45:06;;;;;;;9.27;1.63;;;13.30;99.30;;;;;;4971608;28;20022;-85
2022/09/21 03:47:32;;;;;;;3.85;1.35;;;13.30;99.20;;;;;;4971627;28;20114;-85
2022/09/21 03:49:59;;;;;;;4.38;1.00;;;13.20;99.20;;;;;;4971767;28;20158;-85
2022/09/21 03:52:24;;;;;;;4.80;1.27;;;13.30;99.30;;;;;;4971677;28;20411;-87
2022/09/21 03:54:50;;;;;;;8.50;1.67;;;13.20;99.30;;;;;;4971691;28;20022;-84
2022/09/21 03:57:15;;;;;;;3.85;1.33;;;13.20;99.30;;;;;;4971139;28;20043;-85
2022/09/21 03:59:41;;;;;;;5.20;1.40;;;13.20;99.50;;;;;;4971593;28;20026;-85
2022/09/21 04:02:07;;;;;;;3.10;1.10;;;13.10;99.50;;;;;;4971316;28;20066;-84
2022/09/21 04:04:33;;;;;;;5.68;1.50;;;13.10;99.60;;;;;;4971546;28;20018;-85
2022/09/21 04:06:59;;;;;;;5.13;1.30;;;13.10;99.70;;;;;;4971362;28;20027;-84
2022/09/21 04:09:25;;;;;;;6.45;1.55;;;13.10;99.80;;;;;;4971269;28;20046;-84
2022/09/21 04:11:52;;;;;;;5.15;1.15;;;13.10;99.80;;;;;;4971297;28;20035;-84
2022/09/21 04:14:18;;;;;;;3.10;1.27;;;13.00;99.90;;;;;;4953735;28;20070;-85
2022/09/21 04:16:44;;;;;;;5.35;1.40;;;13.10;99.90;;;;;;4971446;28;20035;-84
2022/09/21 04:19:10;;;;;;;4.85;1.50;;;13.10;99.90;;;;;;4971149;28;20111;-84
2022/09/21 04:21:36;;;;;;;4.20;1.38;;;13.10;99.90;;;;;;4970940;28;20038;-84
2022/09/21 04:24:02;;;;;;;3.35;1.27;;;13.00;99.90;;;;;;4971180;28;20210;-86
2022/09/21 04:26:33;;;;;;;7.18;1.40;;;13.00;99.90;;;;;;4970762;28;20050;-84
2022/09/21 04:29:00;;;;;;;6.07;1.73;;;13.00;99.90;;;;;;4971489;28;20082;-84
2022/09/21 04:31:27;;;;;;;3.30;1.60;;;13.00;99.90;;;;;;4971077;28;20022;-83
2022/09/21 04:33:54;;;;;;;5.72;1.50;;;12.90;99.90;;;;;;4970620;28;20399;-83
2022/09/21 04:36:21;;;;;;;6.70;1.60;;;12.90;99.90;;;;;;4970707;28;20606;-83
2022/09/21 04:38:47;;;;;;;12.60;1.88;;;12.80;99.90;;;;;;4967802;28;20479;-83
2022/09/21 04:41:14;;;;;;;6.18;1.60;;;12.90;99.90;;;;;;4970115;28;20120;-84
2022/09/21 04:43:45;;;;;;;7.13;1.73;;;12.80;99.90;;;;;;4969975;28;20022;-84
2022/09/21 04:46:13;;;;;;;5.05;1.52;;;12.90;99.90;;;;;;4970528;28;20025;-83
2022/09/21 04:48:39;;;;;;;6.70;1.63;;;12.90;99.90;;;;;;4970506;28;20054;-83
2022/09/21 04:51:09;;;;;;;11.68;1.88;;;12.90;99.90;;;;;;4970857;28;20468;-85
2022/09/21 04:53:37;;;;;;;9.77;1.55;;;12.80;99.90;;;;;;4979784;28;20029;-85
2022/09/21 04:56:04;;;;;;;4.40;1.45;;;12.80;99.90;;;;;;4982133;28;20324;-85
2022/09/21 04:58:30;;;;;;;7.65;1.67;;;12.80;99.90;;;;;;4984264;28;20307;-84
2022/09/21 05:00:56;;;;;;;5.45;1.65;;;12.80;99.90;;;;;;4984886;28;20322;-85
2022/09/21 05:03:24;;;;;;;4.93;1.38;;;12.70;99.90;;;;;;4974400;28;20035;-83
2022/09/21 05:05:55;;;;;;;5.07;1.55;;;12.70;99.90;;;;;;4970745;28;20026;-85
2022/09/21 05:11:07;;;;;;;6.60;1.50;;;12.70;99.90;;;;;;4970890;28;20037;-84
2022/09/21 05:13:33;;;;;;;9.68;1.85;;;12.60;99.90;;;;;;4952211;28;20271;-85
2022/09/21 05:15:58;;;;;;;8.40;1.90;;;12.60;99.90;;;;;;4950002;29;20290;-84
2022/09/21 05:18:24;;;;;;;4.70;1.25;;;12.60;99.90;;;;;;4964746;28;20511;-84
2022/09/21 05:20:54;;;;;;;11.98;1.85;;;12.60;99.90;;;;;;4970445;28;20038;-83
2022/09/21 05:23:21;;;;;;;9.27;1.67;;;12.60;99.90;;;;;;4970544;28;20101;-83
2022/09/21 05:25:46;;;;;;;4.15;1.55;;;12.50;99.90;;;;;;4970401;28;20026;-83
2022/09/21 05:28:12;;;;;;;3.10;1.30;;;12.50;99.90;;;;;;4970668;28;20417;-83
2022/09/21 05:30:38;;;;;;;5.80;1.50;;;12.60;99.90;;;;;;4970694;28;20281;-88
2022/09/21 05:33:07;;;;;;;6.03;1.50;;;12.50;99.90;;;;;;4970613;28;20042;-88
2022/09/21 05:35:48;;;;;;;5.95;1.83;;;12.50;99.90;;;;;;4970983;28;20243;-88
2022/09/21 05:38:18;;;;;;;3.97;1.60;;;12.50;99.90;;;;;;4970001;28;20059;-88
2022/09/21 05:40:46;;;;;;;7.57;1.90;;;12.50;99.90;;;;;;4951558;28;20199;-88
2022/09/21 05:43:12;;;;;;;3.78;1.50;;;12.50;99.90;;;;;;4953070;28;20046;-88
2022/09/21 05:45:45;;;;;;;6.20;2.28;;;12.50;99.90;;;;;;4968403;28;20105;-87
2022/09/21 05:48:39;;;;;;;5.07;1.67;;;12.50;99.90;;;;;;4953670;28;20024;-88
2022/09/21 05:51:34;;;;;;;8.07;1.65;;;12.60;99.90;;;;;;4971008;28;20025;-88
2022/09/21 05:54:18;;;;;;;9.13;1.70;;;12.50;99.90;;;;;;4973878;28;20053;-88
2022/09/21 05:57:13;;;;;;;6.10;1.63;;;12.60;99.90;;;;;;4973596;28;20047;-88
2022/09/21 05:59:53;;;;;;;4.30;1.60;;;12.60;99.90;;;;;;4946065;28;20055;-90
2022/09/21 06:02:43;;;;;;;6.45;1.70;;;12.60;99.90;;;;;;4942440;28;20035;-90
2022/09/21 06:05:12;;;;;;;8.75;2.13;;;12.60;99.90;;;;;;4973851;28;20023;-88
2022/09/21 06:07:37;;;;;;;6.95;2.10;;;12.60;99.90;;;;;;4973462;28;20066;-88
2022/09/21 06:10:04;;;;;;;4.50;1.60;;;12.60;99.90;;;;;;4952865;28;20047;-88
2022/09/21 06:12:29;;;;;;;11.13;1.83;;;12.60;99.90;;;;;;4970601;28;20097;-88
2022/09/21 06:14:55;;;;;;;7.28;1.80;;;12.60;99.90;;;;;;4952959;28;20019;-88
2022/09/21 06:17:21;;;;;;;7.68;1.58;;;12.60;99.90;;;;;;4968444;28;20082;-88
2022/09/21 06:19:47;;;;;;;5.90;1.80;;;12.60;99.90;;;;;;4973460;28;20291;-88
2022/09/21 06:22:12;;;;;;;11.80;1.90;;;12.70;99.90;;;;;;4973493;28;20302;-87
2022/09/21 06:24:38;;;;;;;4.72;1.67;;;12.70;99.90;;;;;;4973116;28;20027;-87
2022/09/21 06:27:04;;;;;;;7.55;1.85;;;12.70;99.90;;;;;;4973262;28;20037;-88
2022/09/21 06:29:29;;;;;;;4.35;1.80;;;12.80;99.90;;;;;;4973222;28;20031;-87
2022/09/21 06:31:55;;;;;;;6.72;1.98;;;12.80;99.90;;;;;;4955666;28;20034;-88
2022/09/21 06:34:20;;;;;;;5.50;1.75;;;12.80;99.90;;;;;;4972959;28;20042;-88
2022/09/21 06:36:46;;;;;;;6.55;1.90;;;12.80;99.90;;;;;;4952246;28;20031;-87
2022/09/21 06:39:12;;;;;;;6.60;2.10;;;12.90;99.90;;;;;;4966135;28;20030;-88
2022/09/21 06:41:38;;;;;;;5.97;1.65;;;13.00;99.90;;;;;;4972591;28;20207;-87
2022/09/21 06:44:03;;;;;;;6.35;1.65;;;13.00;99.90;;;;;;4952256;28;20296;-88
2022/09/21 06:46:29;;;;;;;6.60;1.90;;;13.00;99.90;;;;;;4969791;28;20057;-87
2022/09/21 06:48:55;;;;;;;9.13;1.85;;;13.10;99.90;;;;;;4955367;28;20044;-90
2022/09/21 06:51:22;;;;;;;9.55;1.88;;;13.20;99.90;;;;;;4955344;28;20015;-89
2022/09/21 06:53:48;;;;;;;8.20;1.88;;;13.20;99.90;;;;;;4972692;28;20233;-88
2022/09/21 06:56:14;;;;;;;7.28;2.28;;;13.20;99.90;;;;;;4972456;28;20219;-88
2022/09/21 06:58:40;;;;;;;9.70;2.17;;;13.30;99.90;;;;;;4972483;28;20055;-88
2022/09/21 07:01:08;;;;;;;6.82;2.00;;;13.30;99.90;;;;;;4972436;28;20457;-88
2022/09/21 07:03:34;;;;;;;8.70;1.83;;;13.40;99.90;;;;;;4951874;28;20032;-88
2022/09/21 07:06:00;;;;;;;8.45;2.15;;;13.40;99.90;;;;;;4972857;28;20074;-88
2022/09/21 07:08:25;;;;;;;10.02;1.88;;;13.60;99.90;;;;;;4972521;28;20391;-88
2022/09/21 07:10:52;;;;;;;6.18;1.60;;;13.70;99.90;;;;;;4972158;28;20046;-88
2022/09/21 07:13:18;;;;;;;4.43;1.42;;;13.70;99.90;;;;;;4972540;28;20027;-88
2022/09/21 07:15:43;;;;;;;5.47;2.00;;;13.70;99.90;;;;;;4972130;28;20022;-88
2022/09/21 07:18:11;;;;;;;10.45;1.55;;;13.70;99.90;;;;;;4972293;28;20022;-88
2022/09/21 07:20:38;;;;;;;9.10;2.28;;;13.80;99.90;;;;;;4971996;28;20106;-88
2022/09/21 07:23:15;;;;;;;7.65;1.90;;;13.80;99.90;;;;;;4972441;28;20049;-88
2022/09/21 07:25:42;;;;;;;8.13;1.95;;;13.90;99.90;;;;;;4971908;28;20027;-88
2022/09/21 07:28:09;;;;;;;7.72;1.90;;;14.00;99.90;;;;;;4971900;28;20027;-88
2022/09/21 07:30:36;;;;;;;11.88;2.25;;;14.10;99.90;;;;;;4951438;28;20078;-88
2022/09/21 07:33:02;;;;;;;11.63;1.90;;;14.20;99.90;;;;;;4970390;28;20491;-88
2022/09/21 07:35:28;;;;;;;9.57;1.73;;;14.30;99.90;;;;;;4972054;28;20050;-88
2022/09/21 07:37:56;;;;;;;8.82;2.00;;;14.40;99.90;;;;;;4971747;28;20065;-88
2022/09/21 07:40:22;;;;;;;4.28;1.50;;;14.50;99.90;;;;;;4971914;28;20030;-88
2022/09/21 07:42:48;;;;;;;7.80;1.63;;;14.60;99.90;;;;;;4951639;28;20046;-88
2022/09/21 07:45:14;;;;;;;7.45;2.10;;;14.80;99.90;;;;;;4971809;28;20023;-88
2022/09/21 07:47:39;;;;;;;11.32;1.80;;;14.90;99.90;;;;;;4954357;28;20192;-88
2022/09/21 07:50:05;;;;;;;7.93;1.42;;;15.00;99.90;;;;;;4971763;28;20023;-88
2022/09/21 07:52:31;;;;;;;8.50;1.50;;;15.10;99.90;;;;;;4972211;28;20316;-88
2022/09/21 07:54:57;;;;;;;7.25;1.80;;;15.20;99.90;;;;;;4971843;28;20239;-89
2022/09/21 08:00:08;;;;;;;4.55;1.45;;;15.40;99.20;;;;;;4971943;28;20034;-89
2022/09/21 08:02:33;;;;;;;6.55;1.55;;;15.60;99.00;;;;;;4971031;28;20047;-88
2022/09/21 08:04:59;;;;;;;6.57;1.55;;;15.60;98.40;;;;;;4953570;28;20030;-88
2022/09/21 08:07:26;;;;;;;4.47;1.85;;;15.70;98.50;;;;;;4971773;28;20034;-89
2022/09/21 08:09:52;;;;;;;6.65;1.50;;;15.80;98.30;;;;;;4975972;28;20524;-89
2022/09/21 08:12:19;;;;;;;4.22;1.20;;;15.90;97.90;;;;;;4976619;28;20026;-88
2022/09/21 08:14:46;;;;;;;5.97;1.67;;;16.00;97.50;;;;;;4971542;28;20059;-89
2022/09/21 08:17:12;;;;;;;3.90;1.33;;;16.10;97.30;;;;;;4971383;28;20559;-88
2022/09/21 08:19:37;;;;;;;4.75;1.60;;;16.20;97.30;;;;;;4971045;28;20050;-88
2022/09/21 08:22:03;;;;;;;6.20;1.73;;;16.30;97.00;;;;;;4970984;28;20074;-89
2022/09/21 08:24:30;;;;;;;9.45;1.67;;;16.40;97.00;;;;;;4970846;28;20162;-88
2022/09/21 08:26:56;;;;;;;4.63;1.40;;;16.50;97.10;;;;;;4971046;28;20058;-88
2022/09/21 08:29:23;;;;;;;5.15;1.20;;;16.60;96.50;;;;;;4952208;28;20487;-88
2022/09/21 08:31:49;;;;;;;8.43;1.27;;;16.60;96.30;;;;;;4950522;28;20400;-88
2022/09/21 08:34:15;;;;;;;3.80;1.25;;;16.70;95.90;;;;;;4964108;28;20019;-89
2022/09/21 08:36:40;;;;;;;6.07;1.63;;;16.80;95.90;;;;;;4971221;28;20035;-88
2022/09/21 08:39:08;;;;;;;6.00;1.23;;;16.90;95.50;;;;;;4971284;28;20058;-89
2022/09/21 08:42:01;;;;;;;4.65;1.15;;;16.90;95.30;;;;;;4953309;28;20077;-88
2022/09/21 08:44:46;;;;;;;3.38;1.00;;;17.00;95.10;;;;;;4970666;28;20018;-88
2022/09/21 08:47:18;;;;;;;1.92;1.02;;;17.10;94.90;;;;;;4945500;29;20039;-87
2022/09/21 08:49:56;;;;;;;6.75;1.27;;;17.20;95.20;;;;;;4966586;28;20097;-87
2022/09/21 08:52:23;;;;;;;10.25;1.80;;;17.30;94.90;;;;;;4950275;28;20098;-87
2022/09/21 08:55:18;;;;;;;5.18;1.02;;;17.50;94.30;;;;;;4962710;28;20042;-88
2022/09/21 08:57:46;;;;;;;3.97;1.27;;;17.60;94.60;;;;;;4958596;28;20054;-88
2022/09/21 09:00:16;;;;;;;4.93;1.67;;;17.60;94.20;;;;;;4954775;28;20389;-89
2022/09/21 09:03:06;;;;;;;5.10;1.27;;;17.80;94.20;;;;;;4971980;28;20031;-88
2022/09/21 09:05:46;;;;;;;5.05;1.10;;;17.90;94.00;;;;;;4971922;28;20202;-90
2022/09/21 09:08:36;;;;;;;4.93;1.15;;;17.90;93.80;;;;;;4944185;29;20028;-88
2022/09/21 09:11:30;;;;;;;7.15;0.95;;;18.00;92.90;;;;;;4968284;28;20295;-87
2022/09/21 09:14:11;;;;;;;3.30;0.80;;;18.10;92.20;;;;;;4953239;28;20399;-88
2022/09/21 09:16:48;;;;;;;5.78;1.30;;;18.20;92.30;;;;;;4971462;28;20085;-88
2022/09/21 09:19:14;;;;;;;5.75;1.20;;;18.20;92.40;;;;;;4974292;28;20047;-89
2022/09/21 09:21:41;;;;;;;3.17;1.00;;;18.30;92.00;;;;;;4974397;28;20533;-88
2022/09/21 09:24:28;;;;;;;3.65;1.10;;;18.40;92.00;;;;;;4974469;28;20029;-88
2022/09/21 09:26:58;;;;;;;1.98;0.98;;;18.50;92.00;;;;;;4974424;28;20109;-89
2022/09/21 09:29:28;;;;;;;6.88;0.90;;;18.60;91.30;;;;;;4955507;28;20049;-88
2022/09/21 09:31:54;;;;;;;3.53;0.90;;;18.60;91.50;;;;;;4948863;29;20074;-88
2022/09/21 09:34:41;;;;;;;8.82;1.00;;;18.70;91.30;;;;;;4969057;28;20550;-88
2022/09/21 09:37:15;;;;;;;2.35;0.95;;;18.80;90.80;;;;;;4953640;28;20028;-88
2022/09/21 09:39:44;;;;;;;9.95;1.35;;;18.90;90.80;;;;;;4970857;28;20038;-88
2022/09/21 09:42:22;;;;;;;2.05;0.70;;;18.90;90.70;;;;;;4973936;28;20499;-88
2022/09/21 09:45:12;;;;;;;4.72;0.90;;;19.00;90.60;;;;;;4973601;28;20507;-89
2022/09/21 09:48:06;;;;;;;7.35;1.08;;;19.10;90.50;;;;;;4944478;29;20031;-89
2022/09/21 09:50:38;;;;;;;2.17;0.65;;;19.20;90.10;;;;;;4962496;28;20455;-88
2022/09/21 09:53:10;;;;;;;3.40;0.70;;;19.40;89.40;;;;;;4974090;28;20484;-88
2022/09/21 09:55:39;;;;;;;2.83;0.68;;;19.50;88.50;;;;;;4973641;28;20022;-88
2022/09/21 09:58:35;;;;;;;3.30;0.80;;;19.50;87.00;;;;;;4973720;28;20074;-90
2022/09/21 10:01:01;;;;;;;3.22;0.80;;;19.50;86.50;;;;;;4969699;28;20055;-89
2022/09/21 10:03:27;;;;;;;3.92;0.90;;;19.60;86.60;;;;;;4973526;28;20427;-88
2022/09/21 10:05:53;;;;;;;4.78;0.80;;;19.70;85.80;;;;;;4956019;28;20027;-88
2022/09/21 10:08:40;;;;;;;2.85;0.90;;;19.80;85.80;;;;;;4973619;28;20514;-88
2022/09/21 10:11:07;;;;;;;3.03;0.90;;;19.80;85.50;;;;;;4952755;28;20518;-88
2022/09/21 10:13:34;;;;;;;2.65;0.90;;;19.90;85.30;;;;;;4965675;28;20019;-89
2022/09/21 10:16:04;;;;;;;2.80;0.90;;;20.00;85.70;;;;;;4973518;28;20106;-88
2022/09/21 10:18:38;;;;;;;3.65;1.10;;;20.10;85.40;;;;;;4973515;28;20027;-89
2022/09/21 10:21:22;;;;;;;5.45;0.98;;;20.10;84.90;;;;;;4973331;28;20090;-88
2022/09/21 10:23:52;;;;;;;3.78;0.70;;;20.20;85.90;;;;;;4973224;28;20031;-89
2022/09/21 10:26:19;;;;;;;3.92;0.85;;;20.40;84.90;;;;;;4955525;28;20497;-88
2022/09/21 10:29:02;;;;;;;4.63;0.70;;;20.40;84.60;;;;;;4952239;28;20106;-89
2022/09/21 10:31:30;;;;;;;2.03;0.70;;;20.60;83.30;;;;;;4972250;28;20019;-88
2022/09/21 10:34:13;;;;;;;2.67;0.80;;;20.70;82.40;;;;;;4973228;28;20027;-89
2022/09/21 10:36:40;;;;;;;2.93;0.70;;;20.70;82.30;;;;;;4972868;28;20027;-88
2022/09/21 10:39:25;;;;;;;3.80;1.02;;;20.70;81.80;;;;;;4952491;28;20095;-88
2022/09/21 10:41:55;;;;;;;4.65;0.90;;;20.80;80.40;;;;;;4959947;28;20035;-88
2022/09/21 10:44:25;;;;;;;3.13;0.80;;;20.90;80.90;;;;;;4943058;29;20027;-88
2022/09/21 10:46:51;;;;;;;2.70;0.70;;;21.00;80.60;;;;;;4972441;28;20072;-90
2022/09/21 10:49:24;;;;;;;2.25;0.63;;;21.10;80.30;;;;;;4986364;28;20061;-84
2022/09/21 10:51:52;;;;;;;5.40;0.90;;;21.20;79.80;;;;;;4972680;28;20022;-84
2022/09/21 10:54:23;;;;;;;3.67;1.15;;;21.30;79.40;;;;;;4972754;28;20015;-84
2022/09/21 10:56:54;;;;;;;6.20;0.80;;;21.40;78.50;;;;;;4972365;28;20526;-86
2022/09/21 10:59:25;;;;;;;2.80;0.80;;;21.30;78.30;;;;;;4972788;28;20026;-85
2022/09/21 11:01:53;;;;;;;3.70;0.70;;;21.40;77.90;;;;;;4972369;28;20242;-86
2022/09/21 11:04:40;;;;;;;3.50;0.90;;;21.40;78.00;;;;;;4972275;28;20023;-87
2022/09/21 11:07:31;;;;;;;3.65;0.90;;;21.40;78.90;;;;;;4986561;28;20120;-85
2022/09/21 11:10:10;;;;;;;3.10;0.70;;;21.50;78.50;;;;;;4972256;28;20023;-85
2022/09/21 11:12:38;;;;;;;5.15;0.73;;;21.60;77.70;;;;;;4976290;28;20042;-85
2022/09/21 11:16:00;;;;;;;2.03;0.70;;;21.70;78.30;;;;;;4982023;28;20090;-85
2022/09/21 11:18:37;;;;;;;2.40;1.10;;;21.80;78.20;;;;;;4887462;29;20035;-84
2022/09/21 11:21:24;;;;;;;3.30;0.60;;;21.80;77.50;;;;;;4893294;29;20036;-83
2022/09/21 11:24:25;;;;;;;2.47;0.70;;;21.80;77.30;;;;;;4956392;28;20050;-83
2022/09/21 11:27:05;;;;;;;2.95;0.77;;;21.90;77.70;;;;;;4944402;28;20038;-83
2022/09/21 11:29:35;;;;;;;4.60;0.90;;;22.00;77.00;;;;;;4935616;29;20031;-84
2022/09/21 11:32:13;;;;;;;6.18;0.82;;;22.20;77.00;;;;;;4966341;28;20031;-83
2022/09/21 11:35:07;;;;;;;1.73;0.90;;;22.30;76.80;;;;;;4959692;28;20067;-83
2022/09/21 11:37:52;;;;;;;2.00;0.80;;;22.40;77.20;;;;;;4971719;28;20491;-84
2022/09/21 11:40:48;;;;;;;3.58;0.77;;;22.50;76.50;;;;;;4971285;28;20026;-84
2022/09/21 11:43:23;;;;;;;2.63;0.88;;;22.60;76.40;;;;;;4942950;28;20037;-83
2022/09/21 11:46:16;;;;;;;4.72;1.40;;;22.70;74.40;;;;;;4940610;28;20024;-83
2022/09/21 11:48:59;;;;;;;3.97;1.10;;;22.70;74.80;;;;;;4971694;28;20034;-83
2022/09/21 11:51:47;;;;;;;2.20;0.50;;;22.80;74.90;;;;;;4971484;28;20440;-83
2022/09/21 11:54:14;;;;;;;1.83;0.70;;;22.80;75.00;;;;;;4971970;28;20419;-83
2022/09/21 11:56:51;;;;;;;3.92;0.65;;;22.80;75.20;;;;;;4941830;29;20050;-83
2022/09/21 11:59:38;;;;;;;2.15;0.93;;;22.90;74.80;;;;;;4957187;28;20410;-83
2022/09/21 12:02:22;;;;;;;4.35;0.90;;;22.90;73.90;;;;;;4971152;28;20031;-83
2022/09/21 12:05:09;;;;;;;6.05;0.90;;;22.90;74.90;;;;;;4944770;29;20515;-83
2022/09/21 12:07:35;;;;;;;3.25;0.75;;;23.10;75.20;;;;;;4969888;28;20031;-83
2022/09/21 12:10:06;;;;;;;6.60;0.90;;;23.20;74.90;;;;;;4971381;28;20027;-84
2022/09/21 12:12:42;;;;;;;3.78;0.88;;;23.40;74.30;;;;;;4971133;28;20022;-83
2022/09/21 12:15:21;;;;;;;2.75;0.70;;;23.50;74.00;;;;;;4971476;28;20027;-83
2022/09/21 12:18:01;;;;;;;3.47;0.90;;;23.50;73.80;;;;;;4971118;28;20483;-83
2022/09/21 12:20:35;;;;;;;1.88;0.70;;;23.50;74.00;;;;;;4971398;28;20081;-84
2022/09/21 12:23:06;;;;;;;4.28;1.00;;;23.60;73.60;;;;;;4934844;29;20031;-83
2022/09/21 12:25:42;;;;;;;4.43;1.00;;;23.60;73.10;;;;;;4963817;28;20484;-83
2022/09/21 12:28:30;;;;;;;3.03;1.15;;;23.60;73.20;;;;;;4970910;28;20030;-83
2022/09/21 12:31:05;;;;;;;3.38;0.98;;;23.80;72.90;;;;;;4970851;28;20022;-83
2022/09/21 12:33:41;;;;;;;3.13;0.85;;;24.00;72.80;;;;;;4971160;28;20026;-83
2022/09/21 12:36:16;;;;;;;2.80;0.80;;;24.00;72.50;;;;;;4971008;28;20582;-83
2022/09/21 12:39:03;;;;;;;4.15;0.90;;;24.10;72.50;;;;;;4971095;28;20090;-83
2022/09/21 12:42:18;;;;;;;3.25;1.00;;;24.00;71.80;;;;;;4971109;28;20045;-83
2022/09/21 12:44:53;;;;;;;2.15;0.75;;;24.20;71.80;;;;;;4940525;28;20050;-83
2022/09/21 12:47:43;;;;;;;2.15;0.80;;;24.40;71.80;;;;;;4970998;28;20019;-82
2022/09/21 12:50:20;;;;;;;5.05;1.00;;;24.30;71.00;;;;;;4970534;28;20439;-83
2022/09/21 12:52:47;;;;;;;2.60;0.65;;;24.20;71.00;;;;;;4974948;28;20081;-83
2022/09/21 12:55:27;;;;;;;3.88;1.02;;;24.20;71.30;;;;;;4974819;28;20023;-83
2022/09/21 12:58:05;;;;;;;4.28;0.95;;;24.00;71.50;;;;;;4974797;28;20049;-83
2022/09/21 13:00:41;;;;;;;2.53;1.00;;;24.20;70.50;;;;;;4974745;28;20027;-82
2022/09/21 13:03:45;;;;;;;2.92;0.80;;;24.30;70.50;;;;;;4974776;28;20503;-83
2022/09/21 13:06:36;;;;;;;4.10;1.00;;;24.40;70.00;;;;;;4934319;28;20369;-83
2022/09/21 13:09:03;;;;;;;2.45;0.82;;;24.50;69.80;;;;;;4974768;28;20438;-83
2022/09/21 13:11:31;;;;;;;6.80;1.35;;;24.50;70.30;;;;;;4974409;28;20089;-83
2022/09/21 13:14:03;;;;;;;2.13;0.63;;;24.60;70.30;;;;;;4974524;28;20031;-83
2022/09/21 13:16:30;;;;;;;5.35;0.80;;;24.70;69.70;;;;;;4974431;28;20058;-83
2022/09/21 13:18:59;;;;;;;3.95;0.90;;;24.80;70.10;;;;;;4974340;28;20084;-83